Time;durP1;ratioP1;P1;durP2;ratioP2;P2;SDS_P1;SDS_P2;PMS_P1;PMS_P2;Temp;Humidity;BMP_temperature;BMP_pressure;BME280_temperature;BME280_humidity;BME280_pressure;Samples;Min_cycle;Max_cycle;Signal;HPM_P1;HPM_P2
2023/06/07 00:01:48;;;;;;;5.63;2.35;;;;;;;;;;5068883;28;20080;-61
2023/06/07 00:04:15;;;;;;;3.60;2.28;;;;;;;;;;5087032;28;20457;-61
2023/06/07 00:06:42;;;;;;;8.73;2.42;;;;;;;;;;5092418;28;20077;-62
2023/06/07 00:09:09;;;;;;;2.80;2.20;;;;;;;;;;5092042;28;20024;-61
2023/06/07 00:11:36;;;;;;;4.70;2.75;;;;;;;;;;5074500;28;20405;-61
2023/06/07 00:14:03;;;;;;;4.75;2.83;;;;;;;;;;5092338;28;20032;-61
2023/06/07 00:16:32;;;;;;;3.30;2.58;;;;;;;;;;5092800;28;20051;-61
2023/06/07 00:19:01;;;;;;;2.45;1.75;;;;;;;;;;5086751;28;20028;-62
2023/06/07 00:21:30;;;;;;;3.25;1.95;;;;;;;;;;5086941;28;20387;-61
2023/06/07 00:23:56;;;;;;;9.60;2.72;;;;;;;;;;5086550;28;20020;-61
2023/06/07 00:26:23;;;;;;;5.23;2.70;;;;;;;;;;5078154;28;20111;-61
2023/06/07 00:28:52;;;;;;;2.00;1.33;;;;;;;;;;5112135;28;20039;-61
2023/06/07 00:31:19;;;;;;;2.10;1.70;;;;;;;;;;5112460;28;20048;-61
2023/06/07 00:33:46;;;;;;;4.93;2.33;;;;;;;;;;5112278;28;20024;-61
2023/06/07 00:36:12;;;;;;;4.43;2.27;;;;;;;;;;5110691;28;20026;-61
2023/06/07 00:38:42;;;;;;;3.33;2.20;;;;;;;;;;5112335;28;20032;-61
2023/06/07 00:41:10;;;;;;;2.80;1.90;;;;;;;;;;5104584;28;20075;-63
2023/06/07 00:43:39;;;;;;;3.00;2.27;;;;;;;;;;5068678;28;20040;-61
2023/06/07 00:46:06;;;;;;;3.50;2.27;;;;;;;;;;5068208;28;20115;-61
2023/06/07 00:48:33;;;;;;;3.30;1.97;;;;;;;;;;5091683;28;20054;-61
2023/06/07 00:51:00;;;;;;;3.23;2.30;;;;;;;;;;5093860;28;20058;-60
2023/06/07 00:53:27;;;;;;;4.23;2.83;;;;;;;;;;5095643;28;20089;-61
2023/06/07 00:55:54;;;;;;;5.27;2.90;;;;;;;;;;5095543;28;20058;-61
2023/06/07 00:58:21;;;;;;;4.73;2.10;;;;;;;;;;5108939;28;20043;-61
2023/06/07 01:00:52;;;;;;;3.73;2.40;;;;;;;;;;5115812;28;20080;-61
2023/06/07 01:03:21;;;;;;;4.07;2.43;;;;;;;;;;5111389;28;20073;-61
2023/06/07 01:05:50;;;;;;;4.10;2.70;;;;;;;;;;5093091;28;20032;-60
2023/06/07 01:08:17;;;;;;;3.37;2.43;;;;;;;;;;5100913;28;20026;-61
2023/06/07 01:10:46;;;;;;;2.93;2.13;;;;;;;;;;5089657;28;20077;-61
2023/06/07 01:13:15;;;;;;;2.80;1.83;;;;;;;;;;5092709;28;20039;-61
2023/06/07 01:15:42;;;;;;;4.47;2.50;;;;;;;;;;5095271;28;20031;-61
2023/06/07 01:18:10;;;;;;;2.70;2.03;;;;;;;;;;5096245;28;20035;-61
2023/06/07 01:20:39;;;;;;;4.07;2.43;;;;;;;;;;5074435;28;20048;-61
2023/06/07 01:23:09;;;;;;;6.57;2.73;;;;;;;;;;5074848;28;20506;-61
2023/06/07 01:25:35;;;;;;;3.53;2.27;;;;;;;;;;5052864;28;20467;-61
2023/06/07 01:28:03;;;;;;;4.60;2.83;;;;;;;;;;5069364;28;20036;-61
2023/06/07 01:30:32;;;;;;;5.83;2.70;;;;;;;;;;5106417;28;20060;-61
2023/06/07 01:32:59;;;;;;;3.37;1.90;;;;;;;;;;5109747;28;20466;-61
2023/06/07 01:35:29;;;;;;;3.57;2.10;;;;;;;;;;5113068;28;20492;-61
2023/06/07 01:37:57;;;;;;;3.57;2.20;;;;;;;;;;5097169;28;20032;-61
2023/06/07 01:40:26;;;;;;;1.77;1.40;;;;;;;;;;5104154;28;20043;-61
2023/06/07 01:42:56;;;;;;;4.43;2.43;;;;;;;;;;5076567;28;20024;-61
2023/06/07 01:45:23;;;;;;;9.53;2.10;;;;;;;;;;5076904;28;20462;-61
2023/06/07 01:47:50;;;;;;;2.40;1.80;;;;;;;;;;5091082;28;20024;-61
2023/06/07 01:50:23;;;;;;;2.90;2.17;;;;;;;;;;5095838;28;20505;-61
2023/06/07 01:52:49;;;;;;;2.47;1.70;;;;;;;;;;5090923;28;20769;-61
2023/06/07 01:55:18;;;;;;;2.43;1.80;;;;;;;;;;5109583;28;20497;-61
2023/06/07 01:57:52;;;;;;;1.73;1.40;;;;;;;;;;5112114;28;20031;-61
2023/06/07 02:00:40;;;;;;;2.17;1.40;;;;;;;;;;5112638;28;20462;-61
2023/06/07 02:03:10;;;;;;;2.70;1.70;;;;;;;;;;5093779;28;20040;-61
2023/06/07 02:05:38;;;;;;;4.03;1.70;;;;;;;;;;5074070;28;20109;-61
2023/06/07 02:08:17;;;;;;;3.20;1.60;;;;;;;;;;5073903;28;20025;-61
2023/06/07 02:10:48;;;;;;;2.90;1.33;;;;;;;;;;5074189;28;20039;-61
2023/06/07 02:13:16;;;;;;;1.93;1.70;;;;;;;;;;5088650;28;20031;-61
2023/06/07 02:15:47;;;;;;;3.20;1.70;;;;;;;;;;5088613;28;20379;-61
2023/06/07 02:18:16;;;;;;;3.57;2.10;;;;;;;;;;5088138;28;20046;-61
2023/06/07 02:20:43;;;;;;;9.47;2.33;;;;;;;;;;5092688;28;20479;-61
2023/06/07 02:23:11;;;;;;;6.90;1.80;;;;;;;;;;5075543;28;20039;-61
2023/06/07 02:25:38;;;;;;;3.20;1.60;;;;;;;;;;5095869;28;20027;-61
2023/06/07 02:28:05;;;;;;;2.43;1.70;;;;;;;;;;5096021;28;20031;-60
2023/06/07 02:30:34;;;;;;;4.73;1.77;;;;;;;;;;5114002;28;20032;-60
2023/06/07 02:33:01;;;;;;;4.57;2.30;;;;;;;;;;5068533;28;20025;-60
2023/06/07 02:35:28;;;;;;;8.97;2.20;;;;;;;;;;5049794;28;20027;-61
2023/06/07 02:37:57;;;;;;;2.97;2.10;;;;;;;;;;5066924;28;20470;-60
2023/06/07 02:40:24;;;;;;;4.73;2.03;;;;;;;;;;5067778;28;20036;-60
2023/06/07 02:42:51;;;;;;;3.10;1.90;;;;;;;;;;5084015;28;20096;-61
2023/06/07 02:45:18;;;;;;;4.03;2.33;;;;;;;;;;5075469;28;20028;-60
2023/06/07 02:47:46;;;;;;;4.30;2.07;;;;;;;;;;5093435;28;20048;-61
2023/06/07 02:50:14;;;;;;;4.17;2.73;;;;;;;;;;5093442;28;20023;-60
2023/06/07 02:52:41;;;;;;;7.23;2.43;;;;;;;;;;5079332;28;20042;-60
2023/06/07 02:55:08;;;;;;;8.83;2.43;;;;;;;;;;5109454;28;20385;-60
2023/06/07 02:57:35;;;;;;;11.50;1.97;;;;;;;;;;5107659;28;20378;-60
2023/06/07 03:00:08;;;;;;;5.10;2.57;;;;;;;;;;5107815;28;20031;-60
2023/06/07 03:02:36;;;;;;;6.10;2.73;;;;;;;;;;5088515;28;20106;-61
2023/06/07 03:05:04;;;;;;;7.60;2.97;;;;;;;;;;5074229;28;20127;-60
2023/06/07 03:07:34;;;;;;;5.93;3.73;;;;;;;;;;5092668;28;20044;-60
2023/06/07 03:10:05;;;;;;;4.53;3.37;;;;;;;;;;5092540;28;21378;-60
2023/06/07 03:12:32;;;;;;;5.47;4.00;;;;;;;;;;5075042;28;20028;-60
2023/06/07 03:14:59;;;;;;;4.87;3.20;;;;;;;;;;5075862;28;20067;-60
2023/06/07 03:17:26;;;;;;;5.27;3.73;;;;;;;;;;5089008;28;20029;-62
2023/06/07 03:19:53;;;;;;;3.77;2.47;;;;;;;;;;5087391;28;20382;-61
2023/06/07 03:22:21;;;;;;;3.53;2.30;;;;;;;;;;5069006;28;20040;-60
2023/06/07 03:24:49;;;;;;;4.73;2.90;;;;;;;;;;5088703;28;20383;-60
2023/06/07 03:27:22;;;;;;;6.93;2.83;;;;;;;;;;5088742;28;20102;-61
2023/06/07 03:29:53;;;;;;;4.82;2.75;;;;;;;;;;5092516;28;20626;-60
2023/06/07 03:32:21;;;;;;;11.83;3.17;;;;;;;;;;5092116;28;20024;-60
2023/06/07 03:34:48;;;;;;;4.27;3.10;;;;;;;;;;5094345;28;20020;-60
2023/06/07 03:37:16;;;;;;;5.53;3.60;;;;;;;;;;5074651;28;20107;-60
2023/06/07 03:39:43;;;;;;;5.03;3.27;;;;;;;;;;5088912;28;20043;-61
2023/06/07 03:42:10;;;;;;;5.73;2.83;;;;;;;;;;5086512;28;20024;-61
2023/06/07 03:44:39;;;;;;;8.80;3.90;;;;;;;;;;5086908;28;20032;-60
2023/06/07 03:47:07;;;;;;;4.63;3.17;;;;;;;;;;5088452;28;20023;-60
2023/06/07 03:49:35;;;;;;;3.53;2.33;;;;;;;;;;5089480;28;20024;-60
2023/06/07 03:52:02;;;;;;;5.80;2.97;;;;;;;;;;5092369;28;20056;-60
2023/06/07 03:54:28;;;;;;;5.40;3.40;;;;;;;;;;5074250;28;20466;-60
2023/06/07 03:56:57;;;;;;;3.83;2.83;;;;;;;;;;5092955;28;20044;-60
2023/06/07 03:59:26;;;;;;;7.33;3.50;;;;;;;;;;5091865;28;20466;-61
2023/06/07 04:01:57;;;;;;;5.03;2.97;;;;;;;;;;5089305;28;20155;-60
2023/06/07 04:04:33;;;;;;;4.17;2.60;;;;;;;;;;5068388;28;20524;-60
2023/06/07 04:07:03;;;;;;;5.10;3.20;;;;;;;;;;5072136;28;20101;-60
2023/06/07 04:09:30;;;;;;;7.43;3.67;;;;;;;;;;5086638;28;20024;-60
2023/06/07 04:11:58;;;;;;;4.30;3.47;;;;;;;;;;5088501;28;20028;-60
2023/06/07 04:14:25;;;;;;;6.53;3.33;;;;;;;;;;5091803;28;20063;-60
2023/06/07 04:16:52;;;;;;;4.53;3.53;;;;;;;;;;5092611;28;20025;-60
2023/06/07 04:19:23;;;;;;;6.73;3.87;;;;;;;;;;5073946;28;20032;-60
2023/06/07 04:21:50;;;;;;;7.70;3.10;;;;;;;;;;5095492;28;20036;-60
2023/06/07 04:24:18;;;;;;;4.63;3.33;;;;;;;;;;5093501;28;20055;-60
2023/06/07 04:26:47;;;;;;;20.53;3.57;;;;;;;;;;5072356;28;20089;-60
2023/06/07 04:29:16;;;;;;;6.77;3.57;;;;;;;;;;5091600;28;20062;-60
2023/06/07 04:31:43;;;;;;;3.97;2.77;;;;;;;;;;5090469;28;20055;-60
2023/06/07 04:34:10;;;;;;;25.00;3.33;;;;;;;;;;5091501;28;20032;-60
2023/06/07 04:36:39;;;;;;;7.30;4.37;;;;;;;;;;5095894;28;20028;-61
2023/06/07 04:39:09;;;;;;;4.47;3.37;;;;;;;;;;5108372;28;20086;-60
2023/06/07 04:41:40;;;;;;;2.87;2.17;;;;;;;;;;5116106;28;20478;-60
2023/06/07 04:44:07;;;;;;;3.97;3.20;;;;;;;;;;5116180;28;20051;-60
2023/06/07 04:46:34;;;;;;;11.13;3.13;;;;;;;;;;5095379;28;20039;-60
2023/06/07 04:49:02;;;;;;;7.73;3.23;;;;;;;;;;5104133;28;20028;-60
2023/06/07 04:51:31;;;;;;;4.90;3.57;;;;;;;;;;5090206;28;20032;-60
2023/06/07 04:54:04;;;;;;;3.40;2.40;;;;;;;;;;5090045;28;20030;-60
2023/06/07 04:56:31;;;;;;;4.67;3.37;;;;;;;;;;5091841;28;20036;-60
2023/06/07 04:58:58;;;;;;;4.20;3.63;;;;;;;;;;5097817;28;20051;-60
2023/06/07 05:01:25;;;;;;;4.77;3.77;;;;;;;;;;5108523;28;20337;-60
2023/06/07 05:04:02;;;;;;;5.00;3.10;;;;;;;;;;5115786;28;20016;-60
2023/06/07 05:06:31;;;;;;;4.00;3.00;;;;;;;;;;5115708;28;20020;-60
2023/06/07 05:08:57;;;;;;;3.90;2.70;;;;;;;;;;5111314;28;20031;-60
2023/06/07 05:11:24;;;;;;;3.83;2.53;;;;;;;;;;5090958;28;20032;-60
2023/06/07 05:13:51;;;;;;;7.50;3.70;;;;;;;;;;5089378;28;20492;-60
2023/06/07 05:16:18;;;;;;;3.60;2.97;;;;;;;;;;5089601;28;20417;-60
2023/06/07 05:18:49;;;;;;;3.77;2.93;;;;;;;;;;5090861;28;20119;-60
2023/06/07 05:21:16;;;;;;;4.73;3.40;;;;;;;;;;5096915;28;20047;-60
2023/06/07 05:23:43;;;;;;;5.00;3.40;;;;;;;;;;5095067;28;20107;-60
2023/06/07 05:26:10;;;;;;;10.53;3.53;;;;;;;;;;5094713;28;20031;-60
2023/06/07 05:28:37;;;;;;;5.10;3.10;;;;;;;;;;5094752;28;20049;-60
2023/06/07 05:31:04;;;;;;;5.00;2.87;;;;;;;;;;5093558;28;20024;-60
2023/06/07 05:33:30;;;;;;;4.53;2.93;;;;;;;;;;5089200;28;20031;-60
2023/06/07 05:35:58;;;;;;;4.40;3.30;;;;;;;;;;5089121;28;20067;-60
2023/06/07 05:38:24;;;;;;;3.97;2.87;;;;;;;;;;5088995;28;20024;-60
2023/06/07 05:40:51;;;;;;;4.67;2.60;;;;;;;;;;5093310;28;20389;-60
2023/06/07 05:43:18;;;;;;;5.80;3.03;;;;;;;;;;5114865;28;20020;-60
2023/06/07 05:45:45;;;;;;;4.50;3.07;;;;;;;;;;5114848;28;20020;-60
2023/06/07 05:48:11;;;;;;;7.70;3.40;;;;;;;;;;5114817;28;20020;-60
2023/06/07 05:50:38;;;;;;;4.80;3.53;;;;;;;;;;5114518;28;20024;-62
2023/06/07 05:53:05;;;;;;;7.60;4.23;;;;;;;;;;5112227;28;20054;-60
2023/06/07 05:55:32;;;;;;;7.63;4.20;;;;;;;;;;5109129;28;20084;-60
2023/06/07 05:58:00;;;;;;;6.03;3.97;;;;;;;;;;5109254;28;20027;-60
2023/06/07 06:00:27;;;;;;;4.10;3.00;;;;;;;;;;5108893;28;20074;-60
2023/06/07 06:02:53;;;;;;;2.97;2.33;;;;;;;;;;5094043;28;20061;-60
2023/06/07 06:05:27;;;;;;;4.53;3.20;;;;;;;;;;5093811;28;20048;-60
2023/06/07 06:07:55;;;;;;;5.10;3.70;;;;;;;;;;5093993;28;20063;-60
2023/06/07 06:10:22;;;;;;;5.37;3.70;;;;;;;;;;5094106;28;20024;-60
2023/06/07 06:12:49;;;;;;;9.50;3.03;;;;;;;;;;5102863;28;20043;-60
2023/06/07 06:15:16;;;;;;;4.97;3.60;;;;;;;;;;5114137;28;20154;-60
2023/06/07 06:17:42;;;;;;;5.73;3.90;;;;;;;;;;5108509;28;20062;-61
2023/06/07 06:20:09;;;;;;;6.03;4.30;;;;;;;;;;5108284;28;20031;-60
2023/06/07 06:22:36;;;;;;;5.83;4.00;;;;;;;;;;5106711;28;20023;-60
2023/06/07 06:25:03;;;;;;;4.07;3.60;;;;;;;;;;5108566;28;20034;-60
2023/06/07 06:27:30;;;;;;;4.90;3.27;;;;;;;;;;5113708;28;20102;-60
2023/06/07 06:29:56;;;;;;;6.67;3.53;;;;;;;;;;5114368;28;20023;-60
2023/06/07 06:32:23;;;;;;;6.13;3.73;;;;;;;;;;5114050;28;20019;-60
2023/06/07 06:34:50;;;;;;;4.53;3.20;;;;;;;;;;5111522;28;20462;-60
2023/06/07 06:37:17;;;;;;;6.73;3.90;;;;;;;;;;5113776;28;20032;-60
2023/06/07 06:39:43;;;;;;;4.27;2.97;;;;;;;;;;5108896;28;20496;-61
2023/06/07 06:42:11;;;;;;;5.40;3.63;;;;;;;;;;5108227;28;20126;-60
2023/06/07 06:44:37;;;;;;;2.93;2.40;;;;;;;;;;5105468;28;20359;-60
2023/06/07 06:47:04;;;;;;;4.33;2.37;;;;;;;;;;5108221;28;20110;-60
2023/06/07 06:49:31;;;;;;;4.17;2.90;;;;;;;;;;5112376;28;20042;-60
2023/06/07 06:51:58;;;;;;;3.97;2.70;;;;;;;;;;5113546;28;20103;-60
2023/06/07 06:54:26;;;;;;;22.90;3.60;;;;;;;;;;5104379;28;20143;-60
2023/06/07 06:56:53;;;;;;;3.00;2.07;;;;;;;;;;5093136;28;20036;-60
2023/06/07 06:59:20;;;;;;;5.03;2.90;;;;;;;;;;5093125;28;20041;-60
2023/06/07 07:01:47;;;;;;;8.17;3.33;;;;;;;;;;5088902;28;20020;-60
2023/06/07 07:04:17;;;;;;;3.37;2.60;;;;;;;;;;5088952;28;20027;-60
2023/06/07 07:06:45;;;;;;;4.27;2.93;;;;;;;;;;5091479;28;20061;-60
2023/06/07 07:09:13;;;;;;;3.73;2.67;;;;;;;;;;5107647;28;20027;-60
2023/06/07 07:11:39;;;;;;;4.67;2.10;;;;;;;;;;5110890;28;20407;-60
2023/06/07 07:14:06;;;;;;;2.13;1.80;;;;;;;;;;5113348;28;20019;-60
2023/06/07 07:16:33;;;;;;;3.60;2.70;;;;;;;;;;5093000;28;20058;-60
2023/06/07 07:19:00;;;;;;;6.73;2.40;;;;;;;;;;5092891;28;20039;-60
2023/06/07 07:21:27;;;;;;;3.17;2.37;;;;;;;;;;5092929;28;20410;-60
2023/06/07 07:23:55;;;;;;;4.40;3.23;;;;;;;;;;5089401;28;20023;-60
2023/06/07 07:26:21;;;;;;;5.37;3.17;;;;;;;;;;5089687;28;20020;-60
2023/06/07 07:28:48;;;;;;;3.10;2.00;;;;;;;;;;5086539;28;20028;-60
2023/06/07 07:31:15;;;;;;;5.07;2.93;;;;;;;;;;5087094;28;20028;-60
2023/06/07 07:33:42;;;;;;;4.63;2.80;;;;;;;;;;5089792;28;20116;-60
2023/06/07 07:36:09;;;;;;;4.40;2.47;;;;;;;;;;5102645;28;20038;-60
2023/06/07 07:38:37;;;;;;;4.17;2.90;;;;;;;;;;5112817;28;20462;-60
2023/06/07 07:41:05;;;;;;;2.90;2.00;;;;;;;;;;5112729;28;20015;-60
2023/06/07 07:43:32;;;;;;;2.30;1.83;;;;;;;;;;5112745;28;20027;-60
2023/06/07 07:45:59;;;;;;;3.33;2.43;;;;;;;;;;5107231;28;20077;-60
2023/06/07 07:48:26;;;;;;;4.07;2.63;;;;;;;;;;5107209;28;20059;-60
2023/06/07 07:50:52;;;;;;;3.83;2.73;;;;;;;;;;5107078;28;20023;-59
2023/06/07 07:53:19;;;;;;;2.57;2.10;;;;;;;;;;5107270;28;20030;-60
2023/06/07 07:55:46;;;;;;;3.00;2.60;;;;;;;;;;5108672;28;20057;-60
2023/06/07 07:58:13;;;;;;;9.50;2.60;;;;;;;;;;5092238;28;20028;-60
2023/06/07 08:00:41;;;;;;;5.57;2.43;;;;;;;;;;5092253;28;20106;-60
2023/06/07 08:03:08;;;;;;;2.63;1.87;;;;;;;;;;5091661;28;20028;-60
2023/06/07 08:05:35;;;;;;;5.10;3.27;;;;;;;;;;5092265;28;20054;-59
2023/06/07 08:08:02;;;;;;;4.43;2.53;;;;;;;;;;5091149;28;20035;-60
2023/06/07 08:10:29;;;;;;;3.90;2.23;;;;;;;;;;5086446;28;20063;-60
2023/06/07 08:12:56;;;;;;;12.00;2.57;;;;;;;;;;5086632;28;20024;-60
2023/06/07 08:15:22;;;;;;;5.37;3.17;;;;;;;;;;5086652;28;20027;-60
2023/06/07 08:17:49;;;;;;;2.70;2.17;;;;;;;;;;5106484;28;20373;-60
2023/06/07 08:20:16;;;;;;;3.43;2.23;;;;;;;;;;5111868;28;20042;-60
2023/06/07 08:22:43;;;;;;;2.90;2.40;;;;;;;;;;5112575;28;20062;-60
2023/06/07 08:25:10;;;;;;;4.83;3.27;;;;;;;;;;5112370;28;20099;-60
2023/06/07 08:27:37;;;;;;;2.53;2.00;;;;;;;;;;5110081;28;20073;-59
2023/06/07 08:30:05;;;;;;;3.10;2.60;;;;;;;;;;5110843;28;20080;-59
2023/06/07 08:32:32;;;;;;;2.40;1.97;;;;;;;;;;5106683;28;20520;-60
2023/06/07 08:34:59;;;;;;;3.20;2.13;;;;;;;;;;5106644;28;20059;-60
2023/06/07 08:37:26;;;;;;;4.80;2.30;;;;;;;;;;5097298;28;20028;-60
2023/06/07 08:39:52;;;;;;;3.77;3.00;;;;;;;;;;5086812;28;20032;-59
2023/06/07 08:42:19;;;;;;;4.80;3.33;;;;;;;;;;5092098;28;20528;-60
2023/06/07 08:44:46;;;;;;;7.03;3.47;;;;;;;;;;5091964;28;20099;-59
2023/06/07 08:47:13;;;;;;;4.43;3.23;;;;;;;;;;5093282;28;20031;-60
2023/06/07 08:49:41;;;;;;;8.63;3.17;;;;;;;;;;5091764;28;20379;-60
2023/06/07 08:52:10;;;;;;;3.13;2.73;;;;;;;;;;5090549;28;20024;-60
2023/06/07 08:54:41;;;;;;;3.70;3.07;;;;;;;;;;5086151;28;20027;-59
2023/06/07 08:57:09;;;;;;;13.90;2.80;;;;;;;;;;5086272;28;20058;-60
2023/06/07 08:59:36;;;;;;;4.00;3.20;;;;;;;;;;5087389;28;20036;-61
2023/06/07 09:02:06;;;;;;;3.53;2.63;;;;;;;;;;5086150;28;20089;-60
2023/06/07 09:04:34;;;;;;;5.70;3.13;;;;;;;;;;5091548;28;20382;-60
2023/06/07 09:07:04;;;;;;;3.87;2.53;;;;;;;;;;5092926;28;20031;-60
2023/06/07 09:09:30;;;;;;;3.57;2.70;;;;;;;;;;5096603;28;20020;-60
2023/06/07 09:11:57;;;;;;;4.60;2.77;;;;;;;;;;5095465;28;20047;-60
2023/06/07 09:14:26;;;;;;;5.57;3.07;;;;;;;;;;5095758;28;20103;-60
2023/06/07 09:16:54;;;;;;;6.70;3.70;;;;;;;;;;5069482;28;20051;-60
2023/06/07 09:19:41;;;;;;;5.67;3.53;;;;;;;;;;5069188;28;20057;-60
2023/06/07 09:22:09;;;;;;;4.13;2.97;;;;;;;;;;5069006;28;20028;-60
2023/06/07 09:24:37;;;;;;;4.27;3.20;;;;;;;;;;5069803;28;20485;-60
2023/06/07 09:27:04;;;;;;;5.30;3.37;;;;;;;;;;5112039;28;20024;-60
2023/06/07 09:29:38;;;;;;;4.17;3.27;;;;;;;;;;5115258;28;20111;-59
2023/06/07 09:32:21;;;;;;;7.00;3.88;;;;;;;;;;5115295;28;20091;-60
2023/06/07 09:34:50;;;;;;;6.00;3.10;;;;;;;;;;5115125;28;20023;-60
2023/06/07 09:37:20;;;;;;;3.93;3.00;;;;;;;;;;5096070;28;20043;-61
2023/06/07 09:39:50;;;;;;;6.13;3.37;;;;;;;;;;5088955;28;20127;-60
2023/06/07 09:42:18;;;;;;;10.73;2.90;;;;;;;;;;5089083;28;20031;-60
2023/06/07 09:44:45;;;;;;;4.50;3.53;;;;;;;;;;5088882;28;20028;-60
2023/06/07 09:47:22;;;;;;;3.53;2.37;;;;;;;;;;5091485;28;20470;-60
2023/06/07 09:49:48;;;;;;;13.20;3.80;;;;;;;;;;5094608;28;20020;-60
2023/06/07 09:52:16;;;;;;;3.37;3.00;;;;;;;;;;5094467;28;20415;-60
2023/06/07 09:54:43;;;;;;;4.93;2.60;;;;;;;;;;5094433;28;20467;-60
2023/06/07 09:57:28;;;;;;;3.57;2.80;;;;;;;;;;5095852;28;20031;-60
2023/06/07 10:00:14;;;;;;;4.00;2.97;;;;;;;;;;5091656;28;20395;-60
2023/06/07 10:02:46;;;;;;;7.53;2.40;;;;;;;;;;5088776;28;20498;-60
2023/06/07 10:05:13;;;;;;;5.03;3.33;;;;;;;;;;5088490;28;20032;-60
2023/06/07 10:07:44;;;;;;;2.33;2.07;;;;;;;;;;5089699;28;20020;-60
2023/06/07 10:10:11;;;;;;;6.07;3.63;;;;;;;;;;5090923;28;20129;-60
2023/06/07 10:12:42;;;;;;;3.67;1.97;;;;;;;;;;5094204;28;20028;-60
2023/06/07 10:15:10;;;;;;;2.83;2.13;;;;;;;;;;5094103;28;20036;-60
2023/06/07 10:17:51;;;;;;;4.47;3.37;;;;;;;;;;5100906;28;20112;-60
2023/06/07 10:20:37;;;;;;;3.23;2.57;;;;;;;;;;5114021;28;20031;-60
2023/06/07 10:23:05;;;;;;;4.60;3.40;;;;;;;;;;5109968;28;20437;-60
2023/06/07 10:25:37;;;;;;;3.77;2.93;;;;;;;;;;5108688;28;20020;-60
2023/06/07 10:28:07;;;;;;;5.47;3.53;;;;;;;;;;5106472;28;20490;-60
2023/06/07 10:30:35;;;;;;;6.07;2.93;;;;;;;;;;5108286;28;20027;-60
2023/06/07 10:33:04;;;;;;;3.83;3.13;;;;;;;;;;5112106;28;20034;-60
2023/06/07 10:35:30;;;;;;;6.00;3.23;;;;;;;;;;5113871;28;20028;-59
2023/06/07 10:37:58;;;;;;;6.40;2.63;;;;;;;;;;5111130;28;20607;-60
2023/06/07 10:40:25;;;;;;;2.83;2.37;;;;;;;;;;5093624;28;20429;-60
2023/06/07 10:42:55;;;;;;;4.40;3.13;;;;;;;;;;5093495;28;20039;-60
2023/06/07 10:45:21;;;;;;;3.60;2.97;;;;;;;;;;5089158;28;20032;-60
2023/06/07 10:47:48;;;;;;;6.80;3.33;;;;;;;;;;5088092;28;20028;-60
2023/06/07 10:50:27;;;;;;;4.00;3.00;;;;;;;;;;5089237;28;20032;-60
2023/06/07 10:53:01;;;;;;;5.73;3.50;;;;;;;;;;5087650;28;20328;-59
2023/06/07 10:55:31;;;;;;;4.53;3.63;;;;;;;;;;5091440;28;20093;-59
2023/06/07 10:57:58;;;;;;;3.23;2.47;;;;;;;;;;5092807;28;20476;-60
2023/06/07 11:00:29;;;;;;;4.67;3.67;;;;;;;;;;5094569;28;20141;-60
2023/06/07 11:03:09;;;;;;;8.30;3.80;;;;;;;;;;5093224;28;20059;-60
2023/06/07 11:05:54;;;;;;;5.07;3.77;;;;;;;;;;5093206;28;20016;-60
2023/06/07 11:08:24;;;;;;;3.63;2.67;;;;;;;;;;5087626;28;20149;-61
2023/06/07 11:10:51;;;;;;;6.80;4.00;;;;;;;;;;5102591;28;20055;-60
2023/06/07 11:13:18;;;;;;;3.23;2.70;;;;;;;;;;5107763;28;20393;-60
2023/06/07 11:15:45;;;;;;;3.70;3.10;;;;;;;;;;5107729;28;20030;-60
2023/06/07 11:18:11;;;;;;;5.57;3.67;;;;;;;;;;5112208;28;20130;-60
2023/06/07 11:20:38;;;;;;;4.17;3.20;;;;;;;;;;5101172;28;20435;-60
2023/06/07 11:23:23;;;;;;;5.67;3.83;;;;;;;;;;5092215;28;20109;-60
2023/06/07 11:25:54;;;;;;;3.65;2.53;;;;;;;;;;5092572;28;20028;-60
2023/06/07 11:28:23;;;;;;;3.40;2.80;;;;;;;;;;5092702;28;20020;-59
2023/06/07 11:30:51;;;;;;;4.47;3.63;;;;;;;;;;5095243;28;20032;-61
2023/06/07 11:33:20;;;;;;;4.87;3.50;;;;;;;;;;5107335;28;20024;-60
2023/06/07 11:35:46;;;;;;;11.87;3.70;;;;;;;;;;5107497;28;20488;-60
2023/06/07 11:38:13;;;;;;;4.10;3.07;;;;;;;;;;5107185;28;20036;-60
2023/06/07 11:40:40;;;;;;;2.97;2.33;;;;;;;;;;5109841;28;20527;-59
2023/06/07 11:43:10;;;;;;;7.30;3.33;;;;;;;;;;5112881;28;20024;-60
2023/06/07 11:45:38;;;;;;;5.87;3.57;;;;;;;;;;5113058;28;20035;-59
2023/06/07 11:48:05;;;;;;;7.77;3.50;;;;;;;;;;5112849;28;20045;-60
2023/06/07 11:50:32;;;;;;;5.23;3.23;;;;;;;;;;5110834;28;20084;-60
2023/06/07 11:52:59;;;;;;;7.03;3.83;;;;;;;;;;5107160;28;20035;-59
2023/06/07 11:55:26;;;;;;;3.73;2.80;;;;;;;;;;5107133;28;20081;-60
2023/06/07 11:57:53;;;;;;;6.73;3.73;;;;;;;;;;5107086;28;20073;-59
2023/06/07 12:00:23;;;;;;;7.00;3.63;;;;;;;;;;5106877;28;20397;-60
2023/06/07 12:02:51;;;;;;;11.97;4.27;;;;;;;;;;5109057;28;20028;-60
2023/06/07 12:05:18;;;;;;;4.73;3.13;;;;;;;;;;5112043;28;20474;-60
2023/06/07 12:07:53;;;;;;;5.03;3.80;;;;;;;;;;5112856;28;20366;-59
2023/06/07 12:10:30;;;;;;;4.50;3.57;;;;;;;;;;5112615;28;20055;-59
2023/06/07 12:13:10;;;;;;;6.30;4.33;;;;;;;;;;5097732;28;20103;-59
2023/06/07 12:15:48;;;;;;;4.97;3.77;;;;;;;;;;5086252;28;20070;-60
2023/06/07 12:18:16;;;;;;;5.37;3.87;;;;;;;;;;5086538;28;20020;-59
2023/06/07 12:20:46;;;;;;;6.47;4.23;;;;;;;;;;5086426;28;20032;-60
2023/06/07 12:23:13;;;;;;;6.10;4.23;;;;;;;;;;5087941;28;20355;-60
2023/06/07 12:25:41;;;;;;;5.17;4.20;;;;;;;;;;5091855;28;20375;-59
2023/06/07 12:28:14;;;;;;;9.00;4.70;;;;;;;;;;5091561;28;20094;-59
2023/06/07 12:30:42;;;;;;;8.67;5.57;;;;;;;;;;5092070;28;20054;-60
2023/06/07 12:33:16;;;;;;;5.27;4.33;;;;;;;;;;5093495;28;20027;-60
2023/06/07 12:35:50;;;;;;;5.20;3.03;;;;;;;;;;5091400;28;20017;-60
2023/06/07 12:38:20;;;;;;;6.10;3.95;;;;;;;;;;5086321;28;20103;-59
2023/06/07 12:40:47;;;;;;;6.60;4.97;;;;;;;;;;5086418;28;20050;-59
2023/06/07 12:43:14;;;;;;;18.77;5.47;;;;;;;;;;5091944;28;20042;-60
2023/06/07 12:45:40;;;;;;;9.90;5.17;;;;;;;;;;5090154;28;20410;-60
2023/06/07 12:48:08;;;;;;;3.80;3.37;;;;;;;;;;5095925;28;20050;-60
2023/06/07 12:50:35;;;;;;;7.57;5.20;;;;;;;;;;5095864;28;20020;-60
2023/06/07 12:53:02;;;;;;;7.87;5.13;;;;;;;;;;5095516;28;20020;-60
2023/06/07 12:55:29;;;;;;;4.77;3.73;;;;;;;;;;5115786;28;20047;-59
2023/06/07 12:57:55;;;;;;;6.60;4.90;;;;;;;;;;5115784;28;20081;-59
2023/06/07 13:00:22;;;;;;;4.83;4.17;;;;;;;;;;5110003;28;20044;-59
2023/06/07 13:02:49;;;;;;;8.13;5.10;;;;;;;;;;5110449;28;20053;-60
2023/06/07 13:05:16;;;;;;;5.93;4.30;;;;;;;;;;5108169;28;20097;-60
2023/06/07 13:07:43;;;;;;;12.50;4.20;;;;;;;;;;5110077;28;20031;-60
2023/06/07 13:10:10;;;;;;;4.40;3.77;;;;;;;;;;5115070;28;20038;-60
2023/06/07 13:12:38;;;;;;;5.63;4.77;;;;;;;;;;5115277;28;20048;-60
2023/06/07 13:15:05;;;;;;;6.10;5.10;;;;;;;;;;5103126;28;20035;-59
2023/06/07 13:17:32;;;;;;;15.33;5.07;;;;;;;;;;5095302;28;20020;-60
2023/06/07 13:19:59;;;;;;;3.90;3.47;;;;;;;;;;5094997;28;20032;-61
2023/06/07 13:22:26;;;;;;;4.03;2.93;;;;;;;;;;5089837;28;20077;-59
2023/06/07 13:24:54;;;;;;;5.33;3.83;;;;;;;;;;5094765;28;20020;-59
2023/06/07 13:27:21;;;;;;;6.77;4.63;;;;;;;;;;5109613;28;20031;-59
2023/06/07 13:29:47;;;;;;;5.27;4.10;;;;;;;;;;5109463;28;20047;-60
2023/06/07 13:32:14;;;;;;;4.83;3.77;;;;;;;;;;5113907;28;20019;-59
2023/06/07 13:34:41;;;;;;;7.17;4.47;;;;;;;;;;5114809;28;20097;-60
2023/06/07 13:37:08;;;;;;;7.43;5.00;;;;;;;;;;5094837;28;20052;-60
2023/06/07 13:39:34;;;;;;;6.90;4.67;;;;;;;;;;5094796;28;20482;-60
2023/06/07 13:42:01;;;;;;;5.20;3.73;;;;;;;;;;5094729;28;20065;-60
2023/06/07 13:44:28;;;;;;;6.37;4.83;;;;;;;;;;5089841;28;20024;-60
2023/06/07 13:46:55;;;;;;;7.23;5.57;;;;;;;;;;5103682;28;20575;-60
2023/06/07 13:49:22;;;;;;;6.17;4.33;;;;;;;;;;5109517;28;20070;-60
2023/06/07 13:51:48;;;;;;;5.97;4.53;;;;;;;;;;5109000;28;20370;-60
2023/06/07 13:54:15;;;;;;;8.17;4.50;;;;;;;;;;5113125;28;20531;-60
2023/06/07 13:56:42;;;;;;;7.47;5.17;;;;;;;;;;5105326;28;20081;-60
2023/06/07 13:59:08;;;;;;;12.53;6.33;;;;;;;;;;5094229;28;20115;-60
2023/06/07 14:01:36;;;;;;;5.73;4.27;;;;;;;;;;5094231;28;20074;-60
2023/06/07 14:04:03;;;;;;;6.47;5.17;;;;;;;;;;5093979;28;20057;-60
2023/06/07 14:06:29;;;;;;;5.63;4.67;;;;;;;;;;5092197;28;20595;-60
2023/06/07 14:08:56;;;;;;;10.70;3.90;;;;;;;;;;5088769;28;20016;-60
2023/06/07 14:11:24;;;;;;;8.83;5.03;;;;;;;;;;5088375;28;20111;-60
2023/06/07 14:13:51;;;;;;;5.07;4.50;;;;;;;;;;5088590;28;20059;-60
2023/06/07 14:16:20;;;;;;;4.13;2.90;;;;;;;;;;5091379;28;20020;-60
2023/06/07 14:18:48;;;;;;;6.17;3.43;;;;;;;;;;5094717;28;20035;-61
2023/06/07 14:21:15;;;;;;;23.43;4.60;;;;;;;;;;5094170;28;20066;-61
2023/06/07 14:23:42;;;;;;;5.37;4.33;;;;;;;;;;5094244;28;20421;-61
2023/06/07 14:26:08;;;;;;;20.57;3.87;;;;;;;;;;5093939;28;20024;-61
2023/06/07 14:28:35;;;;;;;5.70;4.07;;;;;;;;;;5092134;28;20028;-61
2023/06/07 14:31:02;;;;;;;7.40;4.60;;;;;;;;;;5088322;28;20030;-60
2023/06/07 14:33:29;;;;;;;5.93;4.63;;;;;;;;;;5088147;28;20085;-60
2023/06/07 14:35:55;;;;;;;6.67;4.10;;;;;;;;;;5087355;28;20020;-61
2023/06/07 14:38:22;;;;;;;5.10;3.97;;;;;;;;;;5097261;28;20118;-60
2023/06/07 14:40:49;;;;;;;5.30;3.83;;;;;;;;;;5113829;28;20093;-61
2023/06/07 14:43:16;;;;;;;8.03;5.13;;;;;;;;;;5114005;28;20102;-61
2023/06/07 14:45:42;;;;;;;5.10;3.87;;;;;;;;;;5113820;28;20023;-60
2023/06/07 14:48:09;;;;;;;5.03;3.53;;;;;;;;;;5112171;28;20411;-61
2023/06/07 14:50:36;;;;;;;4.03;3.00;;;;;;;;;;5091022;28;20031;-61